createdAt,value
2023-04-12T05:03:19.188Z,500.00
2023-04-12T05:04:20.131Z,500.00
2023-04-12T05:05:20.133Z,500.00
2023-04-12T05:06:19.186Z,500.00
2023-04-12T05:07:20.177Z,500.00
2023-04-12T05:08:20.233Z,500.00
2023-04-12T05:09:20.264Z,400.00
2023-04-12T05:10:20.305Z,400.00
2023-04-12T05:11:20.338Z,400.00
2023-04-12T05:12:19.334Z,400.00
2023-04-12T05:13:20.344Z,400.00
2023-04-12T05:14:20.463Z,400.00
2023-04-12T05:15:19.332Z,400.00
2023-04-12T05:16:20.369Z,400.00
2023-04-12T05:17:19.343Z,400.00
2023-04-12T05:18:20.390Z,400.00
2023-04-12T05:19:20.438Z,400.00
2023-04-12T05:20:20.450Z,400.00
2023-04-12T05:21:21.040Z,414.00
2023-04-12T05:22:19.674Z,445.00
2023-04-12T05:23:20.719Z,485.00
2023-04-12T05:24:19.741Z,499.00
2023-04-12T05:25:20.761Z,500.00
2023-04-12T05:26:19.785Z,499.00
2023-04-12T05:27:19.831Z,506.00
2023-04-12T05:28:20.858Z,496.00
2023-04-12T05:29:19.852Z,519.00
2023-04-12T05:30:19.876Z,518.00
2023-04-12T05:31:19.954Z,531.00
2023-04-12T05:32:20.997Z,540.00
2023-04-12T05:33:20.012Z,533.00
2023-04-12T05:34:21.021Z,534.00
2023-04-12T05:35:21.080Z,544.00
2023-04-12T05:36:20.060Z,555.00
2023-04-12T05:37:20.079Z,562.00
2023-04-12T05:38:20.045Z,566.00
2023-04-12T05:39:21.045Z,566.00
2023-04-12T05:40:21.040Z,568.00
2023-04-12T05:41:21.071Z,566.00
2023-04-12T05:42:21.098Z,562.00
2023-04-12T05:43:21.761Z,566.00
2023-04-12T05:44:21.243Z,577.00
2023-04-12T05:45:20.273Z,579.00
2023-04-12T05:46:21.397Z,583.00
2023-04-12T05:47:21.398Z,583.00
2023-04-12T05:48:20.443Z,704.00
2023-04-12T05:49:21.618Z,640.00
2023-04-12T05:50:20.533Z,618.00
2023-04-12T05:51:30.699Z,608.00
2023-04-12T05:52:21.776Z,609.00
2023-04-12T05:53:21.630Z,610.00
2023-04-12T05:54:20.557Z,610.00
2023-04-12T05:55:21.556Z,613.00
2023-04-12T05:56:21.567Z,621.00
2023-04-12T05:57:21.546Z,620.00
2023-04-12T05:58:21.536Z,613.00
2023-04-12T05:59:20.575Z,619.00
2023-04-12T06:00:20.525Z,629.00
2023-04-12T06:01:20.509Z,636.00
2023-04-12T06:02:20.848Z,640.00
2023-04-12T06:03:20.681Z,645.00
2023-04-12T06:04:21.679Z,636.00
2023-04-12T06:05:21.481Z,641.00
2023-04-12T06:06:21.458Z,642.00
2023-04-12T06:07:21.505Z,644.00
2023-04-12T06:08:21.466Z,646.00
2023-04-12T06:09:21.452Z,640.00
2023-04-12T06:10:21.448Z,648.00
2023-04-12T06:11:21.453Z,649.00
2023-04-12T06:12:20.419Z,651.00
2023-04-12T06:13:21.415Z,646.00
2023-04-12T06:14:21.415Z,660.00
2023-04-12T06:15:20.448Z,651.00
2023-04-12T06:16:20.513Z,659.00
2023-04-12T06:17:21.420Z,657.00
2023-04-12T06:18:21.390Z,665.00
2023-04-12T06:19:21.377Z,663.00
2023-04-12T06:20:21.368Z,641.00
2023-04-12T06:21:21.348Z,632.00
2023-04-12T06:22:21.362Z,630.00
2023-04-12T06:23:21.369Z,631.00
2023-04-12T06:24:20.341Z,636.00
2023-04-12T06:25:20.329Z,639.00
2023-04-12T06:26:21.329Z,638.00
2023-04-12T06:27:21.325Z,635.00
2023-04-12T06:28:21.314Z,643.00
2023-04-12T06:29:21.360Z,642.00
2023-04-12T06:30:21.385Z,643.00
2023-04-12T06:31:20.475Z,644.00
2023-04-12T06:32:21.494Z,643.00
2023-04-12T06:33:21.705Z,646.00
2023-04-12T06:34:21.578Z,642.00
2023-04-12T06:35:21.606Z,649.00
2023-04-12T06:36:21.591Z,642.00
2023-04-12T06:37:20.622Z,651.00
2023-04-12T06:38:20.697Z,649.00
2023-04-12T06:39:20.737Z,653.00
2023-04-12T06:40:21.772Z,652.00
2023-04-12T06:41:21.834Z,655.00
2023-04-12T06:42:21.905Z,654.00
2023-04-12T06:43:20.958Z,652.00
2023-04-12T06:44:22.026Z,649.00
2023-04-12T06:45:22.183Z,651.00
2023-04-12T06:46:22.176Z,653.00
2023-04-12T06:47:22.361Z,658.00
2023-04-12T06:48:22.261Z,655.00
2023-04-12T06:49:22.608Z,660.00
2023-04-12T06:50:21.381Z,658.00
2023-04-12T06:51:21.424Z,658.00
2023-04-12T06:52:21.783Z,664.00
2023-04-12T06:53:22.539Z,672.00
2023-04-12T06:54:22.602Z,679.00
2023-04-12T06:55:22.696Z,672.00
2023-04-12T06:56:22.706Z,681.00
2023-04-12T06:57:22.798Z,684.00
2023-04-12T06:58:22.833Z,693.00
2023-04-12T06:59:22.895Z,689.00
2023-04-12T07:00:21.954Z,690.00
2023-04-12T07:01:23.061Z,688.00
2023-04-12T07:02:23.100Z,682.00
2023-04-12T07:03:23.089Z,686.00
2023-04-12T07:04:23.113Z,685.00
2023-04-12T07:05:22.014Z,685.00
2023-04-12T07:06:25.660Z,685.00
2023-04-12T07:07:23.027Z,685.00
2023-04-12T07:08:21.992Z,686.00
2023-04-12T07:09:22.991Z,687.00
2023-04-12T07:10:22.975Z,692.00
2023-04-12T07:11:23.472Z,687.00
2023-04-12T07:12:22.999Z,690.00
2023-04-12T07:13:22.942Z,691.00
2023-04-12T07:14:21.960Z,681.00
2023-04-12T07:15:22.945Z,684.00
2023-04-12T07:16:22.934Z,681.00
2023-04-12T07:17:22.111Z,683.00
2023-04-12T07:18:22.911Z,683.00
2023-04-12T07:19:22.913Z,677.00
2023-04-12T07:20:22.899Z,686.00
2023-04-12T07:21:22.041Z,674.00
2023-04-12T07:22:22.911Z,677.00
2023-04-12T07:23:21.884Z,672.00
2023-04-12T07:24:21.880Z,672.00
2023-04-12T07:25:22.907Z,665.00
2023-04-12T07:26:22.871Z,665.00
2023-04-12T07:27:22.877Z,669.00
2023-04-12T07:28:22.828Z,664.00
2023-04-12T07:29:21.843Z,663.00
2023-04-12T07:30:22.823Z,663.00
2023-04-12T07:31:22.817Z,661.00
2023-04-12T07:32:23.012Z,659.00
2023-04-12T07:33:22.989Z,660.00
2023-04-12T07:34:23.069Z,661.00
2023-04-12T07:35:22.786Z,659.00
2023-04-12T07:36:21.826Z,662.00
2023-04-12T07:37:22.773Z,657.00
2023-04-12T07:38:22.792Z,661.00
2023-04-12T07:39:22.814Z,660.00
2023-04-12T07:40:22.767Z,660.00
2023-04-12T07:41:22.747Z,656.00
2023-04-12T07:42:22.763Z,655.00
2023-04-12T07:43:22.810Z,659.00
2023-04-12T07:44:22.774Z,657.00
2023-04-12T07:45:22.781Z,655.00
2023-04-12T07:46:22.874Z,651.00
2023-04-12T07:47:22.867Z,650.00
2023-04-12T07:48:21.698Z,646.00
2023-04-12T07:49:22.695Z,648.00
2023-04-12T07:50:22.678Z,581.00
2023-04-12T07:51:22.677Z,624.00
2023-04-12T07:52:22.858Z,628.00
2023-04-12T07:53:22.656Z,629.00
2023-04-12T07:54:23.550Z,623.00
2023-04-12T07:55:21.638Z,615.00
2023-04-12T07:56:21.638Z,620.00
2023-04-12T07:57:22.630Z,620.00
2023-04-12T07:58:22.626Z,621.00
2023-04-12T07:59:22.634Z,615.00
2023-04-12T08:00:21.602Z,622.00
2023-04-12T08:01:22.623Z,624.00
2023-04-12T08:02:21.780Z,626.00
2023-04-12T08:03:23.774Z,629.00
2023-04-12T08:04:22.983Z,627.00
2023-04-12T08:05:22.911Z,634.00
2023-04-12T08:06:21.886Z,635.00
2023-04-12T08:07:23.014Z,634.00
2023-04-12T08:08:23.172Z,643.00
2023-04-12T08:09:23.067Z,642.00
2023-04-12T08:10:23.138Z,642.00
2023-04-12T08:11:23.186Z,638.00
2023-04-12T08:12:23.306Z,640.00
2023-04-12T08:13:22.295Z,642.00
2023-04-12T08:14:22.345Z,642.00
2023-04-12T08:15:22.520Z,644.00
2023-04-12T08:16:23.507Z,650.00
2023-04-12T08:17:22.501Z,651.00
2023-04-12T08:18:23.538Z,648.00
2023-04-12T08:19:23.563Z,654.00
2023-04-12T08:20:23.639Z,656.00
2023-04-12T08:21:23.653Z,653.00
2023-04-12T08:22:22.690Z,657.00
2023-04-12T08:23:23.714Z,659.00
2023-04-12T08:24:23.745Z,665.00
2023-04-12T08:25:23.810Z,665.00
2023-04-12T08:26:22.814Z,663.00
2023-04-12T08:27:23.848Z,667.00
2023-04-12T08:28:23.899Z,677.00
2023-04-12T08:29:23.932Z,676.00
2023-04-12T08:30:23.956Z,681.00
2023-04-12T08:31:23.371Z,685.00
2023-04-12T08:32:23.096Z,695.00
2023-04-12T08:33:23.048Z,692.00
2023-04-12T08:34:24.068Z,690.00
2023-04-12T08:35:23.158Z,701.00
2023-04-12T08:36:23.135Z,702.00
2023-04-12T08:37:24.172Z,696.00
2023-04-12T08:38:37.214Z,690.00
2023-04-12T08:39:24.197Z,691.00
2023-04-12T08:40:24.192Z,693.00
2023-04-12T08:41:23.185Z,698.00
2023-04-12T08:42:24.319Z,698.00
2023-04-12T08:43:24.150Z,714.00
2023-04-12T08:44:24.152Z,721.00
2023-04-12T08:45:23.139Z,614.00
2023-04-12T08:46:24.158Z,521.00
2023-04-12T08:47:23.596Z,517.00
2023-04-12T08:48:24.130Z,550.00
2023-04-12T08:49:24.137Z,561.00
2023-04-12T08:50:24.102Z,572.00
2023-04-12T08:51:24.127Z,500.00
2023-04-12T08:52:24.101Z,500.00
2023-04-12T08:53:23.091Z,500.00
2023-04-12T08:54:24.084Z,500.00
2023-04-12T08:55:24.114Z,502.00
2023-04-12T08:56:24.057Z,499.00
2023-04-12T08:57:24.328Z,508.00
2023-04-12T08:58:24.061Z,503.00
2023-04-12T08:59:24.061Z,500.00
2023-04-12T09:00:23.042Z,605.00
2023-04-12T09:01:23.048Z,589.00
2023-04-12T09:02:24.311Z,535.00
2023-04-12T09:03:23.326Z,500.00
2023-04-12T09:04:23.150Z,500.00
2023-04-12T09:05:24.098Z,496.00
2023-04-12T09:06:24.033Z,500.00
2023-04-12T09:07:22.973Z,499.00
2023-04-12T09:08:23.987Z,500.00
2023-04-12T09:09:22.966Z,501.00
2023-04-12T09:10:23.996Z,500.00
2023-04-12T09:11:23.952Z,500.00
2023-04-12T09:12:23.948Z,503.00
2023-04-12T09:13:23.951Z,513.00
2023-04-12T09:14:23.926Z,517.00
2023-04-12T09:15:23.926Z,519.00
2023-04-12T09:16:23.936Z,551.00
2023-04-12T09:17:23.957Z,592.00
2023-04-12T09:18:23.917Z,635.00
2023-04-12T09:19:23.918Z,627.00
2023-04-12T09:20:22.992Z,618.00
2023-04-12T09:21:23.969Z,641.00
2023-04-12T09:22:22.953Z,655.00
2023-04-12T09:23:24.021Z,709.00
2023-04-12T09:24:23.994Z,720.00
2023-04-12T09:25:23.974Z,763.00
2023-04-12T09:26:23.988Z,750.00
2023-04-12T09:27:23.032Z,799.00
2023-04-12T09:28:23.177Z,809.00
2023-04-12T09:29:24.236Z,703.00
2023-04-12T09:30:24.146Z,661.00
2023-04-12T09:31:24.196Z,663.00
2023-04-12T09:32:24.267Z,648.00
2023-04-12T09:33:23.190Z,631.00
2023-04-12T09:34:26.513Z,614.00
2023-04-12T09:35:24.273Z,614.00
2023-04-12T09:36:23.213Z,600.00
2023-04-12T09:37:24.177Z,579.00
2023-04-12T09:38:24.168Z,574.00
2023-04-12T09:39:24.167Z,571.00
2023-04-12T09:40:24.135Z,547.00
2023-04-12T09:41:26.717Z,539.00
2023-04-12T09:42:33.279Z,539.00
2023-04-12T09:43:24.140Z,539.00
2023-04-12T09:44:24.115Z,539.00
2023-04-12T09:45:24.232Z,559.00
2023-04-12T09:46:24.242Z,569.00
2023-04-12T09:47:23.151Z,627.00
2023-04-12T09:48:24.365Z,601.00
2023-04-12T09:49:24.080Z,618.00
2023-04-12T09:50:24.067Z,708.00
2023-04-12T09:51:24.104Z,741.00
2023-04-12T09:52:23.058Z,716.00
2023-04-12T09:53:24.358Z,759.00
2023-04-12T09:54:23.030Z,751.00
2023-04-12T09:55:23.070Z,652.00
2023-04-12T09:56:23.057Z,825.00
2023-04-12T09:57:24.043Z,919.00
2023-04-12T09:58:24.101Z,798.00
2023-04-12T09:59:24.080Z,797.00
2023-04-12T10:00:23.001Z,785.00
2023-04-12T10:01:24.133Z,1341.00
2023-04-12T10:02:24.134Z,1435.00
2023-04-12T10:03:24.228Z,1348.00
2023-04-12T10:04:23.126Z,1284.00
2023-04-12T10:05:24.220Z,1268.00
2023-04-12T10:06:23.965Z,1238.00
2023-04-12T10:07:23.957Z,1260.00
2023-04-12T10:08:23.976Z,1269.00
2023-04-12T10:09:23.906Z,1257.00
2023-04-12T10:10:23.900Z,1247.00
2023-04-12T10:11:22.905Z,1259.00
2023-04-12T10:12:24.107Z,1253.00
2023-04-12T10:13:22.937Z,1263.00
2023-04-12T10:14:22.937Z,1262.00
2023-04-12T10:15:23.879Z,1281.00
2023-04-12T10:16:23.919Z,1280.00
2023-04-12T10:17:23.892Z,1197.00
2023-04-12T10:18:22.872Z,1213.00
2023-04-12T10:19:23.915Z,1221.00
2023-04-12T10:20:27.101Z,1221.00
2023-04-12T10:21:23.900Z,1223.00
2023-04-12T10:22:22.923Z,1226.00
2023-04-12T10:23:23.946Z,1232.00
2023-04-12T10:24:23.900Z,1245.00
2023-04-12T10:25:22.906Z,1276.00
2023-04-12T10:26:23.898Z,1264.00
2023-04-12T10:27:22.895Z,1269.00
2023-04-12T10:28:23.883Z,1279.00
2023-04-12T10:29:22.871Z,1279.00
2023-04-12T10:30:23.850Z,1287.00
2023-04-12T10:31:23.987Z,1275.00
2023-04-12T10:32:23.921Z,1287.00
2023-04-12T10:33:22.917Z,1295.00
2023-04-12T10:34:23.823Z,1312.00
2023-04-12T10:35:23.793Z,1308.00
2023-04-12T10:36:23.874Z,1307.00
2023-04-12T10:37:23.797Z,1320.00
2023-04-12T10:38:23.815Z,1324.00
2023-04-12T10:39:23.810Z,1353.00
2023-04-12T10:40:23.799Z,1343.00
2023-04-12T10:41:22.819Z,1353.00
2023-04-12T10:42:23.807Z,1353.00
2023-04-12T10:43:23.854Z,1358.00
2023-04-12T10:44:22.740Z,1360.00
2023-04-12T10:45:22.777Z,1377.00
2023-04-12T10:46:22.775Z,1385.00
2023-04-12T10:47:23.817Z,1368.00
2023-04-12T10:48:23.933Z,1378.00
2023-04-12T10:49:22.737Z,1389.00
2023-04-12T10:50:23.772Z,1404.00
2023-04-12T10:51:23.754Z,1414.00
2023-04-12T10:52:22.745Z,1415.00
2023-04-12T10:53:22.802Z,1412.00
2023-04-12T10:54:23.791Z,1414.00
2023-04-12T10:55:23.860Z,1420.00
2023-04-12T10:56:22.816Z,1408.00
2023-04-12T10:57:22.821Z,1398.00
2023-04-12T10:58:23.932Z,1398.00
2023-04-12T10:59:27.083Z,1387.00
2023-04-12T11:00:23.823Z,1388.00
2023-04-12T11:01:23.946Z,1387.00
2023-04-12T11:02:23.977Z,1377.00
2023-04-12T11:03:23.901Z,1375.00
2023-04-12T11:04:24.018Z,1369.00
2023-04-12T11:05:22.871Z,1353.00
2023-04-12T11:06:27.435Z,1359.00
2023-04-12T11:07:23.735Z,1360.00
2023-04-12T11:08:23.758Z,1349.00
2023-04-12T11:09:23.730Z,1337.00
2023-04-12T11:10:23.745Z,1313.00
2023-04-12T11:11:23.884Z,1318.00
2023-04-12T11:12:23.809Z,1294.00
2023-04-12T11:13:23.877Z,1293.00
2023-04-12T11:14:23.918Z,1283.00
2023-04-12T11:15:23.995Z,1262.00
2023-04-12T11:16:24.081Z,1254.00
2023-04-12T11:17:23.977Z,1257.00
2023-04-12T11:18:24.175Z,1253.00
2023-04-12T11:19:24.208Z,1252.00
2023-04-12T11:20:24.289Z,1253.00
2023-04-12T11:21:24.343Z,1250.00
2023-04-12T11:22:24.414Z,1249.00
2023-04-12T11:23:23.448Z,1243.00
2023-04-12T11:24:24.497Z,1230.00
2023-04-12T11:25:24.572Z,1234.00
2023-04-12T11:26:24.613Z,1230.00
2023-04-12T11:27:24.772Z,1236.00
2023-04-12T11:28:29.720Z,1236.00
2023-04-12T11:29:24.824Z,1236.00
2023-04-12T11:30:23.826Z,1236.00
2023-04-12T11:31:23.733Z,1215.00
2023-04-12T11:32:23.859Z,1197.00
2023-04-12T11:33:24.694Z,1194.00
2023-04-12T11:34:24.705Z,1213.00
2023-04-12T11:35:24.672Z,1204.00
2023-04-12T11:36:24.660Z,1187.00
2023-04-12T11:37:23.686Z,1169.00
2023-04-12T11:38:23.664Z,1158.00
2023-04-12T11:39:23.636Z,1128.00
2023-04-12T11:40:24.654Z,1148.00
2023-04-12T11:41:24.633Z,1140.00
2023-04-12T11:42:24.617Z,1162.00
2023-04-12T11:43:23.633Z,1164.00
2023-04-12T11:44:24.615Z,1155.00
2023-04-12T11:45:24.595Z,1166.00
2023-04-12T11:46:24.646Z,1162.00
2023-04-12T11:47:24.635Z,1173.00
2023-04-12T11:48:23.596Z,1169.00
2023-04-12T11:49:24.561Z,1174.00
2023-04-12T11:50:23.562Z,1169.00
2023-04-12T11:51:23.546Z,1171.00
2023-04-12T11:52:24.573Z,1166.00
2023-04-12T11:53:24.607Z,1173.00
2023-04-12T11:54:24.623Z,1161.00
2023-04-12T11:55:24.656Z,1173.00
2023-04-12T11:56:23.668Z,1164.00
2023-04-12T11:57:23.656Z,1154.00
2023-04-12T11:58:23.700Z,1152.00
2023-04-12T11:59:24.697Z,1143.00
2023-04-12T12:00:23.696Z,1151.00
2023-04-12T12:01:25.406Z,1143.00
2023-04-12T12:02:25.839Z,1139.00
2023-04-12T12:03:23.851Z,1141.00
2023-04-12T12:04:24.878Z,1143.00
2023-04-12T12:05:24.940Z,1144.00
2023-04-12T12:06:23.959Z,1145.00
2023-04-12T12:07:25.086Z,1144.00
2023-04-12T12:08:23.925Z,1148.00
2023-04-12T12:09:24.878Z,1140.00
2023-04-12T12:10:40.023Z,1137.00
2023-04-12T12:11:24.888Z,1145.00
2023-04-12T12:12:24.858Z,1122.00
2023-04-12T12:13:23.899Z,1109.00
2023-04-12T12:14:24.858Z,1117.00
2023-04-12T12:15:24.983Z,1108.00
2023-04-12T12:16:25.050Z,1110.00
2023-04-12T12:17:24.871Z,1111.00
2023-04-12T12:18:23.851Z,1102.00
2023-04-12T12:19:24.822Z,1108.00
2023-04-12T12:20:23.861Z,1100.00
2023-04-12T12:21:24.830Z,1107.00
2023-04-12T12:22:24.824Z,1121.00
2023-04-12T12:23:24.801Z,1112.00
2023-04-12T12:24:24.786Z,1122.00
2023-04-12T12:25:24.757Z,1139.00
2023-04-12T12:26:24.780Z,1127.00
2023-04-12T12:27:23.786Z,1118.00
2023-04-12T12:28:23.772Z,1140.00
2023-04-12T12:29:24.735Z,1124.00
2023-04-12T12:30:24.731Z,1131.00
2023-04-12T12:31:24.790Z,1123.00
2023-04-12T12:32:23.859Z,1130.00
2023-04-12T12:33:35.075Z,1127.00
2023-04-12T12:34:24.737Z,1128.00
2023-04-12T12:35:24.699Z,1129.00
2023-04-12T12:36:23.685Z,1130.00
2023-04-12T12:37:23.672Z,1133.00
2023-04-12T12:38:31.421Z,1130.00
2023-04-12T12:39:24.683Z,1128.00
2023-04-12T12:40:23.667Z,1125.00
2023-04-12T12:41:24.656Z,1126.00
2023-04-12T12:42:23.651Z,1117.00
2023-04-12T12:43:24.627Z,1112.00
2023-04-12T12:44:23.631Z,1113.00
2023-04-12T12:45:24.647Z,1124.00
2023-04-12T12:46:23.653Z,1100.00
2023-04-12T12:47:24.661Z,1082.00
2023-04-12T12:48:23.634Z,1097.00
2023-04-12T12:49:23.615Z,1095.00
2023-04-12T12:50:24.897Z,1089.00
2023-04-12T12:51:24.574Z,1095.00
2023-04-12T12:52:23.572Z,1093.00
2023-04-12T12:53:24.766Z,1084.00
2023-04-12T12:54:39.413Z,1091.00
2023-04-12T12:55:24.563Z,1092.00
2023-04-12T12:56:24.552Z,1094.00
2023-04-12T12:57:24.537Z,1095.00
2023-04-12T12:58:24.540Z,1101.00
2023-04-12T12:59:25.976Z,1106.00
2023-04-12T13:00:24.666Z,1092.00
2023-04-12T13:01:24.694Z,1093.00
2023-04-12T13:02:23.759Z,1096.00
2023-04-12T13:03:24.846Z,1094.00
2023-04-12T13:04:23.773Z,1096.00
2023-04-12T13:05:23.791Z,1094.00
2023-04-12T13:06:23.680Z,1089.00
2023-04-12T13:07:24.702Z,1085.00
2023-04-12T13:08:23.700Z,1094.00
2023-04-12T13:09:24.735Z,1091.00
2023-04-12T13:10:23.756Z,1098.00
2023-04-12T13:11:23.701Z,1096.00
2023-04-12T13:12:23.704Z,1097.00
2023-04-12T13:13:24.713Z,1099.00
2023-04-12T13:14:24.703Z,1086.00
2023-04-12T13:15:24.790Z,1093.00
2023-04-12T13:16:26.264Z,1086.00
2023-04-12T13:17:24.693Z,1088.00
2023-04-12T13:18:24.676Z,1083.00
2023-04-12T13:19:24.747Z,1092.00
2023-04-12T13:20:23.663Z,1075.00
2023-04-12T13:21:24.679Z,1070.00
2023-04-12T13:22:24.651Z,1067.00
2023-04-12T13:23:24.655Z,1061.00
2023-04-12T13:24:24.655Z,1050.00
2023-04-12T13:25:24.659Z,1040.00
2023-04-12T13:26:23.639Z,1045.00
2023-04-12T13:27:24.626Z,1059.00
2023-04-12T13:28:24.635Z,1052.00
2023-04-12T13:29:23.631Z,1057.00
2023-04-12T13:30:23.593Z,1037.00
2023-04-12T13:31:24.593Z,1057.00
2023-04-12T13:32:24.606Z,1056.00
2023-04-12T13:33:24.730Z,1040.00
2023-04-12T13:34:24.576Z,1041.00
2023-04-12T13:35:24.603Z,1055.00
2023-04-12T13:36:23.575Z,1045.00
2023-04-12T13:37:24.538Z,1044.00
2023-04-12T13:38:24.542Z,1059.00
2023-04-12T13:39:24.531Z,1049.00
2023-04-12T13:40:23.524Z,1060.00
2023-04-12T13:41:23.533Z,1059.00
2023-04-12T13:42:24.506Z,1063.00
2023-04-12T13:43:23.497Z,1070.00
2023-04-12T13:44:23.503Z,1067.00
2023-04-12T13:45:24.501Z,1060.00
2023-04-12T13:46:23.545Z,1076.00
2023-04-12T13:47:24.513Z,1063.00
2023-04-12T13:48:24.527Z,1083.00
2023-04-12T13:49:23.476Z,1077.00
2023-04-12T13:50:23.448Z,1096.00
2023-04-12T13:51:24.539Z,1115.00
2023-04-12T13:52:24.448Z,1381.00
2023-04-12T13:53:24.442Z,1230.00
2023-04-12T13:54:24.438Z,1191.00
2023-04-12T13:55:24.419Z,1215.00
2023-04-12T13:56:24.430Z,1229.00
2023-04-12T13:57:24.396Z,1236.00
2023-04-12T13:58:23.406Z,1257.00
2023-04-12T13:59:24.580Z,1266.00
2023-04-12T14:00:24.376Z,1261.00
2023-04-12T14:01:23.455Z,1265.00
2023-04-12T14:02:23.421Z,1271.00
2023-04-12T14:03:24.382Z,1245.00
2023-04-12T14:04:23.452Z,1247.00
2023-04-12T14:05:24.350Z,1247.00
2023-04-12T14:06:23.348Z,1241.00
2023-04-12T14:07:24.395Z,1242.00
2023-04-12T14:08:23.331Z,1234.00
2023-04-12T14:09:24.343Z,1226.00
2023-04-12T14:10:24.319Z,1231.00
2023-04-12T14:11:24.302Z,1234.00
2023-04-12T14:12:24.355Z,1223.00
2023-04-12T14:13:23.409Z,1212.00
2023-04-12T14:14:24.508Z,1202.00
2023-04-12T14:15:24.538Z,1203.00
2023-04-12T14:16:23.592Z,1225.00
2023-04-12T14:17:23.801Z,1204.00
2023-04-12T14:18:23.816Z,1205.00
2023-04-12T14:19:23.773Z,1208.00
2023-04-12T14:20:24.838Z,1209.00
2023-04-12T14:21:24.891Z,1194.00
2023-04-12T14:22:24.959Z,1201.00
2023-04-12T14:23:25.062Z,1197.00
2023-04-12T14:24:25.086Z,1190.00
2023-04-12T14:25:25.141Z,1185.00
2023-04-12T14:26:24.179Z,1190.00
2023-04-12T14:27:25.255Z,1187.00
2023-04-12T14:28:25.305Z,1178.00
2023-04-12T14:29:25.402Z,1175.00
2023-04-12T14:30:25.427Z,1175.00
2023-04-12T14:31:25.604Z,1174.00
2023-04-12T14:32:25.629Z,1158.00
2023-04-12T14:33:24.622Z,1160.00
2023-04-12T14:34:25.767Z,1167.00
2023-04-12T14:35:25.741Z,1151.00
2023-04-12T14:36:24.806Z,1166.00
2023-04-12T14:37:24.838Z,1167.00
2023-04-12T14:38:25.994Z,1162.00
2023-04-12T14:39:24.993Z,1150.00
2023-04-12T14:40:25.041Z,1162.00
2023-04-12T14:41:26.088Z,1163.00
2023-04-12T14:42:26.174Z,1166.00
2023-04-12T14:43:26.206Z,1164.00
2023-04-12T14:44:26.582Z,1168.00
2023-04-12T14:45:25.339Z,1170.00
2023-04-12T14:46:26.445Z,1163.00
2023-04-12T14:47:25.490Z,1170.00
2023-04-12T14:48:25.523Z,1173.00
2023-04-12T14:49:25.592Z,1158.00
2023-04-12T14:50:25.642Z,1156.00
2023-04-12T14:51:25.669Z,1149.00
2023-04-12T14:52:26.718Z,1137.00
2023-04-12T14:53:26.776Z,1123.00
2023-04-12T14:54:26.811Z,1124.00
2023-04-12T14:55:26.912Z,1120.00
2023-04-12T14:56:28.001Z,1121.00
2023-04-12T14:57:26.904Z,1139.00
2023-04-12T14:58:25.912Z,1129.00
2023-04-12T14:59:26.936Z,1109.00
2023-04-12T15:00:25.887Z,1109.00
2023-04-12T15:01:26.889Z,1108.00
2023-04-12T15:02:26.054Z,1108.00
2023-04-12T15:03:26.986Z,1110.00
2023-04-12T15:04:26.006Z,1102.00
2023-04-12T15:05:26.959Z,1096.00
2023-04-12T15:06:25.858Z,1101.00
2023-04-12T15:07:25.872Z,1103.00
2023-04-12T15:08:25.836Z,1103.00
2023-04-12T15:09:26.837Z,1088.00
2023-04-12T15:10:26.817Z,1081.00
2023-04-12T15:11:27.587Z,1085.00
2023-04-12T15:12:26.803Z,1084.00
2023-04-12T15:13:32.398Z,1088.00
2023-04-12T15:14:26.814Z,1090.00
2023-04-12T15:15:25.777Z,1092.00
2023-04-12T15:16:26.789Z,1092.00
2023-04-12T15:17:26.778Z,1091.00
2023-04-12T15:18:26.750Z,1096.00
2023-04-12T15:19:25.754Z,1101.00
2023-04-12T15:20:26.766Z,1100.00
2023-04-12T15:21:25.748Z,1095.00
2023-04-12T15:22:26.729Z,1102.00
2023-04-12T15:23:26.755Z,1093.00
2023-04-12T15:24:26.706Z,1086.00
2023-04-12T15:25:25.707Z,1090.00
2023-04-12T15:26:26.696Z,1095.00
2023-04-12T15:27:26.768Z,1085.00
2023-04-12T15:28:26.701Z,1097.00
2023-04-12T15:29:25.796Z,1087.00
